sensor_id;sensor_type;location;lat;lon;timestamp;P1;durP1;ratioP1;P2;durP2;ratioP2
23242;SDS011;11790;49.578;11.214;2024-03-23T00:54:39;12.18;;;6.55;;
23242;SDS011;11790;49.578;11.214;2024-03-23T00:59:39;12.37;;;7.07;;
23242;SDS011;11790;49.578;11.214;2024-03-23T01:04:39;12.70;;;7.78;;
23242;SDS011;11790;49.578;11.214;2024-03-23T01:09:40;13.55;;;7.80;;
23242;SDS011;11790;49.578;11.214;2024-03-23T01:14:40;14.73;;;7.68;;
23242;SDS011;11790;49.578;11.214;2024-03-23T01:19:40;11.43;;;6.63;;
23242;SDS011;11790;49.578;11.214;2024-03-23T01:24:41;11.02;;;6.60;;
23242;SDS011;11790;49.578;11.214;2024-03-23T01:29:41;12.25;;;6.38;;
23242;SDS011;11790;49.578;11.214;2024-03-23T01:34:41;9.60;;;6.10;;
23242;SDS011;11790;49.578;11.214;2024-03-23T01:39:41;12.02;;;5.78;;
23242;SDS011;11790;49.578;11.214;2024-03-23T01:44:42;11.43;;;6.30;;
23242;SDS011;11790;49.578;11.214;2024-03-23T01:49:42;10.73;;;6.47;;
23242;SDS011;11790;49.578;11.214;2024-03-23T01:54:42;10.93;;;6.07;;
23242;SDS011;11790;49.578;11.214;2024-03-23T01:59:42;9.80;;;6.47;;
23242;SDS011;11790;49.578;11.214;2024-03-23T02:04:42;9.98;;;6.85;;
23242;SDS011;11790;49.578;11.214;2024-03-23T02:09:43;14.27;;;6.85;;
23242;SDS011;11790;49.578;11.214;2024-03-23T02:14:43;14.82;;;7.88;;
23242;SDS011;11790;49.578;11.214;2024-03-23T02:19:44;9.65;;;6.13;;
23242;SDS011;11790;49.578;11.214;2024-03-23T02:24:44;10.05;;;6.50;;
23242;SDS011;11790;49.578;11.214;2024-03-23T02:29:44;11.40;;;6.38;;
23242;SDS011;11790;49.578;11.214;2024-03-23T02:34:44;11.98;;;6.45;;
23242;SDS011;11790;49.578;11.214;2024-03-23T02:39:45;13.40;;;6.10;;
23242;SDS011;11790;49.578;11.214;2024-03-23T02:44:45;11.95;;;7.00;;
23242;SDS011;11790;49.578;11.214;2024-03-23T02:49:45;14.52;;;6.35;;
23242;SDS011;11790;49.578;11.214;2024-03-23T02:54:45;11.45;;;6.10;;
23242;SDS011;11790;49.578;11.214;2024-03-23T02:59:45;8.73;;;6.05;;
23242;SDS011;11790;49.578;11.214;2024-03-23T03:04:45;10.70;;;6.60;;
23242;SDS011;11790;49.578;11.214;2024-03-23T03:09:45;12.50;;;6.88;;
23242;SDS011;11790;49.578;11.214;2024-03-23T03:14:46;12.52;;;6.65;;
23242;SDS011;11790;49.578;11.214;2024-03-23T03:19:46;11.37;;;6.47;;
23242;SDS011;11790;49.578;11.214;2024-03-23T03:24:46;12.10;;;6.07;;
23242;SDS011;11790;49.578;11.214;2024-03-23T03:29:47;14.33;;;6.33;;
23242;SDS011;11790;49.578;11.214;2024-03-23T03:34:47;11.63;;;6.38;;
23242;SDS011;11790;49.578;11.214;2024-03-23T03:39:47;9.35;;;6.63;;
23242;SDS011;11790;49.578;11.214;2024-03-23T03:44:47;13.55;;;7.18;;
23242;SDS011;11790;49.578;11.214;2024-03-23T03:49:47;11.90;;;7.43;;
23242;SDS011;11790;49.578;11.214;2024-03-23T03:54:48;10.57;;;7.07;;
23242;SDS011;11790;49.578;11.214;2024-03-23T03:59:48;13.52;;;7.57;;
23242;SDS011;11790;49.578;11.214;2024-03-23T04:04:48;13.57;;;6.60;;
23242;SDS011;11790;49.578;11.214;2024-03-23T04:09:48;9.35;;;6.18;;
23242;SDS011;11790;49.578;11.214;2024-03-23T04:14:49;12.88;;;7.85;;
23242;SDS011;11790;49.578;11.214;2024-03-23T04:19:49;13.65;;;8.50;;
23242;SDS011;11790;49.578;11.214;2024-03-23T04:24:50;13.40;;;8.13;;
23242;SDS011;11790;49.578;11.214;2024-03-23T04:29:51;13.32;;;8.02;;
23242;SDS011;11790;49.578;11.214;2024-03-23T04:34:51;12.55;;;8.02;;
23242;SDS011;11790;49.578;11.214;2024-03-23T04:39:52;13.90;;;8.48;;
23242;SDS011;11790;49.578;11.214;2024-03-23T04:44:52;15.18;;;8.85;;
23242;SDS011;11790;49.578;11.214;2024-03-23T04:49:52;15.85;;;8.55;;
23242;SDS011;11790;49.578;11.214;2024-03-23T04:54:53;12.15;;;8.20;;
23242;SDS011;11790;49.578;11.214;2024-03-23T04:59:53;14.80;;;7.80;;
23242;SDS011;11790;49.578;11.214;2024-03-23T05:04:53;11.05;;;6.93;;
23242;SDS011;11790;49.578;11.214;2024-03-23T05:09:54;11.18;;;7.18;;
23242;SDS011;11790;49.578;11.214;2024-03-23T05:14:54;11.88;;;7.75;;
23242;SDS011;11790;49.578;11.214;2024-03-23T05:19:54;10.15;;;7.15;;
23242;SDS011;11790;49.578;11.214;2024-03-23T05:24:54;11.70;;;6.82;;
23242;SDS011;11790;49.578;11.214;2024-03-23T05:29:55;11.30;;;6.90;;
23242;SDS011;11790;49.578;11.214;2024-03-23T05:34:55;10.27;;;6.18;;
23242;SDS011;11790;49.578;11.214;2024-03-23T05:39:56;8.50;;;5.93;;
23242;SDS011;11790;49.578;11.214;2024-03-23T05:44:56;11.82;;;6.80;;
23242;SDS011;11790;49.578;11.214;2024-03-23T05:49:57;7.70;;;5.60;;
23242;SDS011;11790;49.578;11.214;2024-03-23T05:54:57;10.35;;;6.32;;
23242;SDS011;11790;49.578;11.214;2024-03-23T05:59:58;8.98;;;6.25;;
23242;SDS011;11790;49.578;11.214;2024-03-23T06:04:58;9.55;;;5.93;;
23242;SDS011;11790;49.578;11.214;2024-03-23T06:09:58;10.70;;;6.20;;
23242;SDS011;11790;49.578;11.214;2024-03-23T06:14:59;9.20;;;6.18;;
23242;SDS011;11790;49.578;11.214;2024-03-23T06:19:59;8.38;;;5.78;;
23242;SDS011;11790;49.578;11.214;2024-03-23T06:24:59;12.23;;;6.20;;
23242;SDS011;11790;49.578;11.214;2024-03-23T06:29:59;12.07;;;6.50;;
23242;SDS011;11790;49.578;11.214;2024-03-23T06:35:00;9.60;;;6.70;;
23242;SDS011;11790;49.578;11.214;2024-03-23T06:40:00;11.13;;;7.00;;
23242;SDS011;11790;49.578;11.214;2024-03-23T06:45:00;12.77;;;7.88;;
23242;SDS011;11790;49.578;11.214;2024-03-23T06:50:01;16.15;;;8.27;;
23242;SDS011;11790;49.578;11.214;2024-03-23T06:55:02;13.73;;;8.27;;
23242;SDS011;11790;49.578;11.214;2024-03-23T07:00:04;12.38;;;8.05;;
23242;SDS011;11790;49.578;11.214;2024-03-23T07:05:05;14.18;;;8.73;;
23242;SDS011;11790;49.578;11.214;2024-03-23T07:10:07;12.63;;;8.15;;
23242;SDS011;11790;49.578;11.214;2024-03-23T07:15:07;14.65;;;8.40;;
23242;SDS011;11790;49.578;11.214;2024-03-23T07:20:08;13.43;;;8.15;;
23242;SDS011;11790;49.578;11.214;2024-03-23T07:25:10;11.93;;;7.22;;
23242;SDS011;11790;49.578;11.214;2024-03-23T07:30:10;13.20;;;7.67;;
23242;SDS011;11790;49.578;11.214;2024-03-23T07:35:11;11.30;;;7.40;;
23242;SDS011;11790;49.578;11.214;2024-03-23T07:40:11;12.00;;;6.82;;
23242;SDS011;11790;49.578;11.214;2024-03-23T07:45:11;11.63;;;6.80;;
23242;SDS011;11790;49.578;11.214;2024-03-23T07:50:12;11.98;;;7.00;;
23242;SDS011;11790;49.578;11.214;2024-03-23T07:55:12;13.43;;;7.80;;
23242;SDS011;11790;49.578;11.214;2024-03-23T08:00:12;12.70;;;7.50;;
23242;SDS011;11790;49.578;11.214;2024-03-23T08:05:15;12.38;;;7.72;;
23242;SDS011;11790;49.578;11.214;2024-03-23T08:10:15;12.45;;;6.68;;
23242;SDS011;11790;49.578;11.214;2024-03-23T08:15:18;12.70;;;6.97;;
23242;SDS011;11790;49.578;11.214;2024-03-23T08:20:18;10.05;;;5.82;;
23242;SDS011;11790;49.578;11.214;2024-03-23T08:25:18;8.63;;;5.38;;
23242;SDS011;11790;49.578;11.214;2024-03-23T08:30:19;8.40;;;4.85;;
23242;SDS011;11790;49.578;11.214;2024-03-23T08:35:19;7.05;;;4.38;;
23242;SDS011;11790;49.578;11.214;2024-03-23T08:40:20;6.20;;;3.83;;
23242;SDS011;11790;49.578;11.214;2024-03-23T08:45:20;5.35;;;3.30;;
23242;SDS011;11790;49.578;11.214;2024-03-23T08:50:20;3.83;;;2.47;;
23242;SDS011;11790;49.578;11.214;2024-03-23T08:55:21;3.58;;;2.17;;
23242;SDS011;11790;49.578;11.214;2024-03-23T09:00:22;3.83;;;2.30;;
23242;SDS011;11790;49.578;11.214;2024-03-23T09:05:22;3.58;;;2.38;;
23242;SDS011;11790;49.578;11.214;2024-03-23T09:10:24;2.78;;;1.73;;
23242;SDS011;11790;49.578;11.214;2024-03-23T09:15:24;2.13;;;1.30;;
23242;SDS011;11790;49.578;11.214;2024-03-23T09:20:24;2.58;;;1.20;;
23242;SDS011;11790;49.578;11.214;2024-03-23T09:25:24;1.80;;;1.05;;
23242;SDS011;11790;49.578;11.214;2024-03-23T09:30:25;1.33;;;0.60;;
23242;SDS011;11790;49.578;11.214;2024-03-23T09:35:25;1.10;;;0.70;;
23242;SDS011;11790;49.578;11.214;2024-03-23T09:40:25;1.02;;;0.73;;
23242;SDS011;11790;49.578;11.214;2024-03-23T09:45:27;1.05;;;0.68;;
23242;SDS011;11790;49.578;11.214;2024-03-23T09:50:28;1.40;;;0.40;;
23242;SDS011;11790;49.578;11.214;2024-03-23T09:55:28;0.40;;;0.30;;
23242;SDS011;11790;49.578;11.214;2024-03-23T10:00:28;0.15;;;0.15;;
23242;SDS011;11790;49.578;11.214;2024-03-23T10:05:29;0.70;;;0.30;;
23242;SDS011;11790;49.578;11.214;2024-03-23T10:10:31;0.50;;;0.30;;
23242;SDS011;11790;49.578;11.214;2024-03-23T10:15:35;0.40;;;0.40;;
23242;SDS011;11790;49.578;11.214;2024-03-23T10:20:35;1.38;;;0.52;;
23242;SDS011;11790;49.578;11.214;2024-03-23T10:25:35;2.33;;;0.70;;
23242;SDS011;11790;49.578;11.214;2024-03-23T10:30:36;1.27;;;0.60;;
23242;SDS011;11790;49.578;11.214;2024-03-23T10:35:36;1.17;;;0.63;;
23242;SDS011;11790;49.578;11.214;2024-03-23T10:40:37;1.38;;;0.90;;
23242;SDS011;11790;49.578;11.214;2024-03-23T10:45:37;2.85;;;1.33;;
23242;SDS011;11790;49.578;11.214;2024-03-23T10:50:38;4.70;;;1.40;;
23242;SDS011;11790;49.578;11.214;2024-03-23T10:55:38;3.22;;;1.70;;
23242;SDS011;11790;49.578;11.214;2024-03-23T11:00:38;4.55;;;1.38;;
23242;SDS011;11790;49.578;11.214;2024-03-23T11:05:39;4.35;;;1.60;;
23242;SDS011;11790;49.578;11.214;2024-03-23T11:10:39;6.28;;;1.90;;
23242;SDS011;11790;49.578;11.214;2024-03-23T11:15:40;5.60;;;1.70;;
23242;SDS011;11790;49.578;11.214;2024-03-23T11:20:40;5.80;;;1.73;;
23242;SDS011;11790;49.578;11.214;2024-03-23T11:25:40;4.97;;;1.40;;
23242;SDS011;11790;49.578;11.214;2024-03-23T11:30:40;3.10;;;1.48;;
23242;SDS011;11790;49.578;11.214;2024-03-23T11:35:41;4.63;;;1.70;;
23242;SDS011;11790;49.578;11.214;2024-03-23T11:40:42;5.43;;;1.90;;
23242;SDS011;11790;49.578;11.214;2024-03-23T11:45:43;5.47;;;1.95;;
23242;SDS011;11790;49.578;11.214;2024-03-23T11:50:44;7.60;;;2.05;;
23242;SDS011;11790;49.578;11.214;2024-03-23T12:00:57;4.97;;;2.20;;
23242;SDS011;11790;49.578;11.214;2024-03-23T12:05:58;5.90;;;1.83;;
23242;SDS011;11790;49.578;11.214;2024-03-23T12:21:12;5.38;;;2.17;;
23242;SDS011;11790;49.578;11.214;2024-03-23T12:26:12;6.78;;;2.05;;
23242;SDS011;11790;49.578;11.214;2024-03-23T12:31:13;6.43;;;2.17;;
23242;SDS011;11790;49.578;11.214;2024-03-23T12:36:13;5.63;;;2.17;;
23242;SDS011;11790;49.578;11.214;2024-03-23T12:41:13;4.50;;;1.92;;
23242;SDS011;11790;49.578;11.214;2024-03-23T12:46:13;4.90;;;2.00;;
23242;SDS011;11790;49.578;11.214;2024-03-23T12:51:14;6.75;;;2.10;;
23242;SDS011;11790;49.578;11.214;2024-03-23T12:56:14;4.97;;;1.98;;
23242;SDS011;11790;49.578;11.214;2024-03-23T13:01:15;3.97;;;1.65;;
23242;SDS011;11790;49.578;11.214;2024-03-23T13:06:15;4.80;;;2.00;;
23242;SDS011;11790;49.578;11.214;2024-03-23T13:11:15;5.25;;;1.73;;
23242;SDS011;11790;49.578;11.214;2024-03-23T13:16:16;6.57;;;1.90;;
23242;SDS011;11790;49.578;11.214;2024-03-23T13:21:16;5.40;;;1.83;;
23242;SDS011;11790;49.578;11.214;2024-03-23T13:26:16;7.57;;;2.42;;
23242;SDS011;11790;49.578;11.214;2024-03-23T13:31:17;7.03;;;2.40;;
23242;SDS011;11790;49.578;11.214;2024-03-23T13:36:17;8.45;;;2.08;;
23242;SDS011;11790;49.578;11.214;2024-03-23T13:41:17;5.47;;;1.92;;
23242;SDS011;11790;49.578;11.214;2024-03-23T13:46:17;6.75;;;1.85;;
23242;SDS011;11790;49.578;11.214;2024-03-23T13:51:22;4.00;;;1.70;;
23242;SDS011;11790;49.578;11.214;2024-03-23T14:01:24;7.20;;;1.88;;
23242;SDS011;11790;49.578;11.214;2024-03-23T14:06:24;7.23;;;1.93;;
23242;SDS011;11790;49.578;11.214;2024-03-23T14:11:24;5.50;;;2.20;;
23242;SDS011;11790;49.578;11.214;2024-03-23T14:16:26;9.57;;;3.13;;
23242;SDS011;11790;49.578;11.214;2024-03-23T14:21:27;5.88;;;2.78;;
23242;SDS011;11790;49.578;11.214;2024-03-23T14:26:27;6.47;;;2.38;;
23242;SDS011;11790;49.578;11.214;2024-03-23T14:31:27;8.30;;;2.58;;
23242;SDS011;11790;49.578;11.214;2024-03-23T14:36:28;7.97;;;2.42;;
23242;SDS011;11790;49.578;11.214;2024-03-23T14:41:28;6.40;;;2.00;;
23242;SDS011;11790;49.578;11.214;2024-03-23T14:46:28;5.85;;;1.88;;
23242;SDS011;11790;49.578;11.214;2024-03-23T14:51:28;6.35;;;2.35;;
23242;SDS011;11790;49.578;11.214;2024-03-23T14:56:29;5.15;;;1.65;;
23242;SDS011;11790;49.578;11.214;2024-03-23T15:01:29;7.57;;;1.85;;
23242;SDS011;11790;49.578;11.214;2024-03-23T15:06:29;5.55;;;1.70;;
23242;SDS011;11790;49.578;11.214;2024-03-23T15:11:29;6.47;;;1.90;;
23242;SDS011;11790;49.578;11.214;2024-03-23T15:16:29;4.75;;;2.03;;
23242;SDS011;11790;49.578;11.214;2024-03-23T15:21:30;5.15;;;2.08;;
23242;SDS011;11790;49.578;11.214;2024-03-23T15:26:30;6.55;;;2.10;;
23242;SDS011;11790;49.578;11.214;2024-03-23T15:31:30;8.35;;;2.65;;
23242;SDS011;11790;49.578;11.214;2024-03-23T15:36:32;7.82;;;3.28;;
23242;SDS011;11790;49.578;11.214;2024-03-23T15:41:32;11.43;;;2.92;;
23242;SDS011;11790;49.578;11.214;2024-03-23T15:46:34;9.98;;;2.83;;
23242;SDS011;11790;49.578;11.214;2024-03-23T15:51:34;8.73;;;2.70;;
23242;SDS011;11790;49.578;11.214;2024-03-23T15:56:36;8.10;;;2.60;;
23242;SDS011;11790;49.578;11.214;2024-03-23T16:01:37;6.75;;;2.03;;
23242;SDS011;11790;49.578;11.214;2024-03-23T16:06:38;4.72;;;1.65;;
23242;SDS011;11790;49.578;11.214;2024-03-23T16:11:39;4.15;;;1.98;;
23242;SDS011;11790;49.578;11.214;2024-03-23T16:16:39;5.38;;;1.98;;
23242;SDS011;11790;49.578;11.214;2024-03-23T16:21:39;7.53;;;2.50;;
23242;SDS011;11790;49.578;11.214;2024-03-23T16:26:39;7.63;;;2.40;;
23242;SDS011;11790;49.578;11.214;2024-03-23T16:31:40;8.23;;;2.40;;
23242;SDS011;11790;49.578;11.214;2024-03-23T16:36:40;5.57;;;2.20;;
23242;SDS011;11790;49.578;11.214;2024-03-23T16:41:40;5.60;;;2.55;;
23242;SDS011;11790;49.578;11.214;2024-03-23T16:46:40;2.97;;;1.85;;
23242;SDS011;11790;49.578;11.214;2024-03-23T16:51:43;6.13;;;2.22;;
23242;SDS011;11790;49.578;11.214;2024-03-23T16:56:43;4.32;;;2.10;;
23242;SDS011;11790;49.578;11.214;2024-03-23T17:01:43;6.25;;;1.90;;
23242;SDS011;11790;49.578;11.214;2024-03-23T17:06:44;4.88;;;2.00;;
23242;SDS011;11790;49.578;11.214;2024-03-23T17:11:44;6.87;;;2.37;;
23242;SDS011;11790;49.578;11.214;2024-03-23T17:16:46;8.50;;;2.63;;
23242;SDS011;11790;49.578;11.214;2024-03-23T17:21:46;4.88;;;2.05;;
23242;SDS011;11790;49.578;11.214;2024-03-23T17:26:46;5.57;;;1.80;;
23242;SDS011;11790;49.578;11.214;2024-03-23T17:31:47;6.95;;;2.17;;
23242;SDS011;11790;49.578;11.214;2024-03-23T17:36:47;3.78;;;1.95;;
23242;SDS011;11790;49.578;11.214;2024-03-23T17:41:47;3.15;;;1.70;;
23242;SDS011;11790;49.578;11.214;2024-03-23T17:46:47;2.65;;;1.83;;
23242;SDS011;11790;49.578;11.214;2024-03-23T17:51:48;3.58;;;1.58;;
23242;SDS011;11790;49.578;11.214;2024-03-23T17:56:48;3.50;;;1.60;;
23242;SDS011;11790;49.578;11.214;2024-03-23T18:01:48;5.72;;;1.90;;
23242;SDS011;11790;49.578;11.214;2024-03-23T18:06:49;3.72;;;1.50;;
23242;SDS011;11790;49.578;11.214;2024-03-23T18:11:50;7.30;;;2.80;;
23242;SDS011;11790;49.578;11.214;2024-03-23T18:16:52;8.10;;;3.20;;
23242;SDS011;11790;49.578;11.214;2024-03-23T18:21:53;7.10;;;2.92;;
23242;SDS011;11790;49.578;11.214;2024-03-23T18:26:53;3.78;;;1.83;;
23242;SDS011;11790;49.578;11.214;2024-03-23T18:31:55;4.18;;;1.77;;
23242;SDS011;11790;49.578;11.214;2024-03-23T18:36:55;4.03;;;2.03;;
23242;SDS011;11790;49.578;11.214;2024-03-23T18:41:55;5.53;;;1.77;;
23242;SDS011;11790;49.578;11.214;2024-03-23T18:46:56;4.80;;;2.08;;
23242;SDS011;11790;49.578;11.214;2024-03-23T18:51:56;5.43;;;2.83;;
23242;SDS011;11790;49.578;11.214;2024-03-23T18:56:56;5.50;;;3.00;;
23242;SDS011;11790;49.578;11.214;2024-03-23T19:01:56;10.20;;;5.63;;
23242;SDS011;11790;49.578;11.214;2024-03-23T19:06:57;16.92;;;8.85;;
23242;SDS011;11790;49.578;11.214;2024-03-23T19:11:57;25.80;;;12.40;;
23242;SDS011;11790;49.578;11.214;2024-03-23T19:16:57;25.65;;;11.65;;
23242;SDS011;11790;49.578;11.214;2024-03-23T19:21:59;12.98;;;8.23;;
23242;SDS011;11790;49.578;11.214;2024-03-23T19:26:59;11.88;;;5.70;;
23242;SDS011;11790;49.578;11.214;2024-03-23T19:32:00;7.68;;;3.17;;
23242;SDS011;11790;49.578;11.214;2024-03-23T19:37:00;5.32;;;2.08;;
23242;SDS011;11790;49.578;11.214;2024-03-23T19:42:00;3.05;;;1.75;;
23242;SDS011;11790;49.578;11.214;2024-03-23T19:47:00;4.23;;;1.90;;
23242;SDS011;11790;49.578;11.214;2024-03-23T19:52:02;4.00;;;1.75;;
23242;SDS011;11790;49.578;11.214;2024-03-23T19:57:03;4.20;;;1.55;;
23242;SDS011;11790;49.578;11.214;2024-03-23T20:02:04;2.47;;;1.40;;
23242;SDS011;11790;49.578;11.214;2024-03-23T20:07:04;3.35;;;1.45;;
23242;SDS011;11790;49.578;11.214;2024-03-23T20:12:04;3.25;;;1.30;;
23242;SDS011;11790;49.578;11.214;2024-03-23T20:17:05;3.40;;;1.50;;
23242;SDS011;11790;49.578;11.214;2024-03-23T20:22:05;2.00;;;1.55;;
23242;SDS011;11790;49.578;11.214;2024-03-23T20:27:08;2.70;;;1.50;;
23242;SDS011;11790;49.578;11.214;2024-03-23T20:32:08;3.42;;;2.28;;
23242;SDS011;11790;49.578;11.214;2024-03-23T20:37:08;3.63;;;2.15;;
23242;SDS011;11790;49.578;11.214;2024-03-23T20:42:08;3.28;;;2.20;;
23242;SDS011;11790;49.578;11.214;2024-03-23T20:47:11;4.53;;;2.83;;
23242;SDS011;11790;49.578;11.214;2024-03-23T20:52:11;6.35;;;2.47;;
23242;SDS011;11790;49.578;11.214;2024-03-23T20:57:12;7.97;;;3.53;;
23242;SDS011;11790;49.578;11.214;2024-03-23T21:02:12;3.75;;;1.90;;
23242;SDS011;11790;49.578;11.214;2024-03-23T21:07:12;6.63;;;2.00;;
23242;SDS011;11790;49.578;11.214;2024-03-23T21:12:12;3.75;;;1.58;;
23242;SDS011;11790;49.578;11.214;2024-03-23T21:17:12;3.55;;;1.80;;
23242;SDS011;11790;49.578;11.214;2024-03-23T21:22:13;6.25;;;1.63;;
23242;SDS011;11790;49.578;11.214;2024-03-23T21:27:13;3.70;;;1.90;;
23242;SDS011;11790;49.578;11.214;2024-03-23T21:32:13;4.47;;;1.70;;
23242;SDS011;11790;49.578;11.214;2024-03-23T21:37:14;4.93;;;2.08;;
23242;SDS011;11790;49.578;11.214;2024-03-23T21:42:15;4.10;;;1.55;;
23242;SDS011;11790;49.578;11.214;2024-03-23T21:47:15;8.20;;;1.98;;
23242;SDS011;11790;49.578;11.214;2024-03-23T21:52:15;5.60;;;2.00;;
23242;SDS011;11790;49.578;11.214;2024-03-23T21:57:15;4.30;;;2.05;;
23242;SDS011;11790;49.578;11.214;2024-03-23T22:02:17;5.53;;;2.00;;
23242;SDS011;11790;49.578;11.214;2024-03-23T22:07:18;4.65;;;2.22;;
23242;SDS011;11790;49.578;11.214;2024-03-23T22:17:26;3.58;;;1.75;;
23242;SDS011;11790;49.578;11.214;2024-03-23T22:22:26;5.70;;;2.08;;
23242;SDS011;11790;49.578;11.214;2024-03-23T22:27:27;9.13;;;2.85;;
23242;SDS011;11790;49.578;11.214;2024-03-23T22:32:29;4.63;;;2.42;;
23242;SDS011;11790;49.578;11.214;2024-03-23T22:37:29;4.10;;;2.70;;
23242;SDS011;11790;49.578;11.214;2024-03-23T22:42:30;4.25;;;2.75;;
23242;SDS011;11790;49.578;11.214;2024-03-23T22:47:30;6.32;;;2.90;;
23242;SDS011;11790;49.578;11.214;2024-03-23T22:52:31;4.93;;;3.15;;
23242;SDS011;11790;49.578;11.214;2024-03-23T22:57:31;4.00;;;2.92;;
23242;SDS011;11790;49.578;11.214;2024-03-23T23:02:32;5.45;;;2.90;;
23242;SDS011;11790;49.578;11.214;2024-03-23T23:07:32;4.55;;;3.33;;
23242;SDS011;11790;49.578;11.214;2024-03-23T23:12:32;4.93;;;3.17;;
23242;SDS011;11790;49.578;11.214;2024-03-23T23:17:32;4.93;;;3.23;;
23242;SDS011;11790;49.578;11.214;2024-03-23T23:22:33;8.13;;;3.13;;
23242;SDS011;11790;49.578;11.214;2024-03-23T23:27:33;8.75;;;3.75;;
23242;SDS011;11790;49.578;11.214;2024-03-23T23:32:33;6.22;;;3.25;;
23242;SDS011;11790;49.578;11.214;2024-03-23T23:37:34;7.65;;;3.17;;
23242;SDS011;11790;49.578;11.214;2024-03-23T23:42:34;4.97;;;2.97;;
23242;SDS011;11790;49.578;11.214;2024-03-23T23:47:34;7.90;;;3.47;;
23242;SDS011;11790;49.578;11.214;2024-03-23T23:52:35;6.20;;;3.00;;
23242;SDS011;11790;49.578;11.214;2024-03-23T23:57:36;4.32;;;3.08;;
